sensor_id;sensor_type;location;lat;lon;timestamp;temperature;humidity
46590;DHT22;32313;48.722;9.362;2023-02-15T00:01:26;-3.60;99.90
46590;DHT22;32313;48.722;9.362;2023-02-15T00:03:52;-3.50;99.90
46590;DHT22;32313;48.722;9.362;2023-02-15T00:06:18;-3.50;99.90
46590;DHT22;32313;48.722;9.362;2023-02-15T00:08:43;-3.60;99.90
46590;DHT22;32313;48.722;9.362;2023-02-15T00:11:12;-3.60;99.90
46590;DHT22;32313;48.722;9.362;2023-02-15T00:13:38;-3.60;99.90
46590;DHT22;32313;48.722;9.362;2023-02-15T00:16:08;-3.70;99.90
46590;DHT22;32313;48.722;9.362;2023-02-15T00:18:34;-3.60;99.90
46590;DHT22;32313;48.722;9.362;2023-02-15T00:21:04;-3.60;99.90
46590;DHT22;32313;48.722;9.362;2023-02-15T00:23:30;-3.60;99.90
46590;DHT22;32313;48.722;9.362;2023-02-15T00:26:11;-3.70;99.90
46590;DHT22;32313;48.722;9.362;2023-02-15T00:28:39;-3.80;99.90
46590;DHT22;32313;48.722;9.362;2023-02-15T00:31:10;-3.80;99.90
46590;DHT22;32313;48.722;9.362;2023-02-15T00:33:37;-3.80;99.90
46590;DHT22;32313;48.722;9.362;2023-02-15T00:36:04;-3.90;99.90
46590;DHT22;32313;48.722;9.362;2023-02-15T00:38:30;-3.90;99.90
46590;DHT22;32313;48.722;9.362;2023-02-15T00:41:01;-3.90;99.90
46590;DHT22;32313;48.722;9.362;2023-02-15T00:43:29;-3.90;99.90
46590;DHT22;32313;48.722;9.362;2023-02-15T00:45:55;-4.00;99.90
46590;DHT22;32313;48.722;9.362;2023-02-15T00:48:21;-4.00;99.90
46590;DHT22;32313;48.722;9.362;2023-02-15T00:50:50;-4.00;99.90
46590;DHT22;32313;48.722;9.362;2023-02-15T00:53:16;-4.00;99.90
46590;DHT22;32313;48.722;9.362;2023-02-15T00:55:42;-4.00;99.90
46590;DHT22;32313;48.722;9.362;2023-02-15T00:58:08;-4.00;99.90
46590;DHT22;32313;48.722;9.362;2023-02-15T01:00:35;-4.10;99.90
46590;DHT22;32313;48.722;9.362;2023-02-15T01:03:01;-4.10;99.90
46590;DHT22;32313;48.722;9.362;2023-02-15T01:05:27;-4.10;99.90
46590;DHT22;32313;48.722;9.362;2023-02-15T01:07:52;-4.10;99.90
46590;DHT22;32313;48.722;9.362;2023-02-15T01:10:18;-4.20;99.90
46590;DHT22;32313;48.722;9.362;2023-02-15T01:12:44;-4.20;99.90
46590;DHT22;32313;48.722;9.362;2023-02-15T01:15:10;-4.20;99.90
46590;DHT22;32313;48.722;9.362;2023-02-15T01:17:36;-4.20;99.90
46590;DHT22;32313;48.722;9.362;2023-02-15T01:20:03;-4.20;99.90
46590;DHT22;32313;48.722;9.362;2023-02-15T01:22:29;-4.20;99.90
46590;DHT22;32313;48.722;9.362;2023-02-15T01:24:55;-4.20;99.90
46590;DHT22;32313;48.722;9.362;2023-02-15T01:27:20;-4.20;99.90
46590;DHT22;32313;48.722;9.362;2023-02-15T01:29:46;-4.20;99.90
46590;DHT22;32313;48.722;9.362;2023-02-15T01:32:14;-4.30;99.90
46590;DHT22;32313;48.722;9.362;2023-02-15T01:34:42;-4.30;99.90
46590;DHT22;32313;48.722;9.362;2023-02-15T01:37:08;-4.20;99.90
46590;DHT22;32313;48.722;9.362;2023-02-15T01:39:34;-4.20;99.90
46590;DHT22;32313;48.722;9.362;2023-02-15T01:41:59;-4.20;99.90
46590;DHT22;32313;48.722;9.362;2023-02-15T01:47:20;-4.30;99.90
46590;DHT22;32313;48.722;9.362;2023-02-15T01:49:56;-4.30;99.90
46590;DHT22;32313;48.722;9.362;2023-02-15T01:52:23;-4.40;99.90
46590;DHT22;32313;48.722;9.362;2023-02-15T01:54:49;-4.40;99.90
46590;DHT22;32313;48.722;9.362;2023-02-15T01:57:19;-4.40;99.90
46590;DHT22;32313;48.722;9.362;2023-02-15T01:59:48;-4.40;99.90
46590;DHT22;32313;48.722;9.362;2023-02-15T02:02:18;-4.40;99.90
46590;DHT22;32313;48.722;9.362;2023-02-15T02:04:51;-4.50;99.90
46590;DHT22;32313;48.722;9.362;2023-02-15T02:07:21;-4.40;99.90
46590;DHT22;32313;48.722;9.362;2023-02-15T02:09:48;-4.50;99.90
46590;DHT22;32313;48.722;9.362;2023-02-15T02:12:16;-4.50;99.90
46590;DHT22;32313;48.722;9.362;2023-02-15T02:14:42;-4.50;99.90
46590;DHT22;32313;48.722;9.362;2023-02-15T02:17:31;-4.40;99.90
46590;DHT22;32313;48.722;9.362;2023-02-15T02:20:30;-4.50;99.90
46590;DHT22;32313;48.722;9.362;2023-02-15T02:34:32;-4.60;99.90
46590;DHT22;32313;48.722;9.362;2023-02-15T02:37:16;-4.60;99.90
46590;DHT22;32313;48.722;9.362;2023-02-15T02:42:44;-4.70;99.90
46590;DHT22;32313;48.722;9.362;2023-02-15T02:45:20;-4.70;99.90
46590;DHT22;32313;48.722;9.362;2023-02-15T02:50:25;-4.60;99.90
46590;DHT22;32313;48.722;9.362;2023-02-15T02:52:53;-4.60;99.90
46590;DHT22;32313;48.722;9.362;2023-02-15T02:55:31;-4.60;99.90
46590;DHT22;32313;48.722;9.362;2023-02-15T03:01:17;-4.50;99.90
46590;DHT22;32313;48.722;9.362;2023-02-15T03:03:44;-4.60;99.90
46590;DHT22;32313;48.722;9.362;2023-02-15T03:06:18;-4.60;99.90
46590;DHT22;32313;48.722;9.362;2023-02-15T03:08:50;-4.60;99.90
46590;DHT22;32313;48.722;9.362;2023-02-15T03:11:16;-4.50;99.90
46590;DHT22;32313;48.722;9.362;2023-02-15T03:13:44;-4.50;99.90
46590;DHT22;32313;48.722;9.362;2023-02-15T03:16:11;-4.60;99.90
46590;DHT22;32313;48.722;9.362;2023-02-15T03:19:09;-4.70;99.90
46590;DHT22;32313;48.722;9.362;2023-02-15T03:21:48;-4.70;99.90
46590;DHT22;32313;48.722;9.362;2023-02-15T03:24:28;-4.70;99.90
46590;DHT22;32313;48.722;9.362;2023-02-15T03:26:54;-4.70;99.90
46590;DHT22;32313;48.722;9.362;2023-02-15T03:29:23;-4.70;99.90
46590;DHT22;32313;48.722;9.362;2023-02-15T03:31:55;-4.70;99.90
46590;DHT22;32313;48.722;9.362;2023-02-15T03:34:22;-4.70;99.90
46590;DHT22;32313;48.722;9.362;2023-02-15T03:36:52;-4.70;99.90
46590;DHT22;32313;48.722;9.362;2023-02-15T03:39:22;-4.80;99.90
46590;DHT22;32313;48.722;9.362;2023-02-15T03:42:01;-4.80;99.90
46590;DHT22;32313;48.722;9.362;2023-02-15T03:44:31;-4.80;99.90
46590;DHT22;32313;48.722;9.362;2023-02-15T03:47:03;-4.80;99.90
46590;DHT22;32313;48.722;9.362;2023-02-15T03:49:52;-4.70;99.90
46590;DHT22;32313;48.722;9.362;2023-02-15T03:52:20;-4.70;99.90
46590;DHT22;32313;48.722;9.362;2023-02-15T03:54:46;-4.80;99.90
46590;DHT22;32313;48.722;9.362;2023-02-15T03:57:23;-4.90;99.90
46590;DHT22;32313;48.722;9.362;2023-02-15T04:00:17;-5.00;99.90
46590;DHT22;32313;48.722;9.362;2023-02-15T04:03:12;-4.90;99.90
46590;DHT22;32313;48.722;9.362;2023-02-15T04:05:44;-5.00;99.90
46590;DHT22;32313;48.722;9.362;2023-02-15T04:08:10;-4.80;99.90
46590;DHT22;32313;48.722;9.362;2023-02-15T04:10:36;-4.80;99.90
46590;DHT22;32313;48.722;9.362;2023-02-15T04:13:31;-4.80;99.90
46590;DHT22;32313;48.722;9.362;2023-02-15T04:15:57;-4.80;99.90
46590;DHT22;32313;48.722;9.362;2023-02-15T04:18:37;-4.80;99.90
46590;DHT22;32313;48.722;9.362;2023-02-15T04:21:23;-4.80;99.90
46590;DHT22;32313;48.722;9.362;2023-02-15T04:24:08;-4.90;99.90
46590;DHT22;32313;48.722;9.362;2023-02-15T04:26:52;-4.90;99.90
46590;DHT22;32313;48.722;9.362;2023-02-15T04:29:19;-4.90;99.90
46590;DHT22;32313;48.722;9.362;2023-02-15T04:31:46;-4.80;99.90
46590;DHT22;32313;48.722;9.362;2023-02-15T04:34:12;-4.70;99.90
46590;DHT22;32313;48.722;9.362;2023-02-15T04:36:38;-4.70;99.90
46590;DHT22;32313;48.722;9.362;2023-02-15T04:39:05;-4.80;99.90
46590;DHT22;32313;48.722;9.362;2023-02-15T04:41:31;-4.80;99.90
46590;DHT22;32313;48.722;9.362;2023-02-15T04:43:57;-4.90;99.90
46590;DHT22;32313;48.722;9.362;2023-02-15T04:46:23;-4.90;99.90
46590;DHT22;32313;48.722;9.362;2023-02-15T04:48:48;-4.90;99.90
46590;DHT22;32313;48.722;9.362;2023-02-15T04:51:14;-4.90;99.90
46590;DHT22;32313;48.722;9.362;2023-02-15T04:53:40;-5.00;99.90
46590;DHT22;32313;48.722;9.362;2023-02-15T04:56:05;-5.00;99.90
46590;DHT22;32313;48.722;9.362;2023-02-15T04:58:31;-5.10;99.90
46590;DHT22;32313;48.722;9.362;2023-02-15T05:00:57;-5.10;99.90
46590;DHT22;32313;48.722;9.362;2023-02-15T05:03:24;-5.10;99.90
46590;DHT22;32313;48.722;9.362;2023-02-15T05:05:50;-5.10;99.90
46590;DHT22;32313;48.722;9.362;2023-02-15T05:08:16;-5.10;99.90
46590;DHT22;32313;48.722;9.362;2023-02-15T05:10:42;-5.10;99.90
46590;DHT22;32313;48.722;9.362;2023-02-15T05:13:07;-5.20;99.90
46590;DHT22;32313;48.722;9.362;2023-02-15T05:15:33;-5.20;99.90
46590;DHT22;32313;48.722;9.362;2023-02-15T05:17:59;-5.20;99.90
46590;DHT22;32313;48.722;9.362;2023-02-15T05:20:25;-5.10;99.90
46590;DHT22;32313;48.722;9.362;2023-02-15T05:22:53;-5.10;99.90
46590;DHT22;32313;48.722;9.362;2023-02-15T05:25:19;-5.10;99.90
46590;DHT22;32313;48.722;9.362;2023-02-15T05:28:03;-5.10;99.90
46590;DHT22;32313;48.722;9.362;2023-02-15T05:31:02;-5.20;99.90
46590;DHT22;32313;48.722;9.362;2023-02-15T05:33:28;-5.30;99.90
46590;DHT22;32313;48.722;9.362;2023-02-15T05:35:54;-5.30;99.90
46590;DHT22;32313;48.722;9.362;2023-02-15T05:38:19;-5.40;99.90
46590;DHT22;32313;48.722;9.362;2023-02-15T05:40:45;-5.40;99.90
46590;DHT22;32313;48.722;9.362;2023-02-15T05:43:11;-5.40;99.90
46590;DHT22;32313;48.722;9.362;2023-02-15T05:45:36;-5.40;99.90
46590;DHT22;32313;48.722;9.362;2023-02-15T05:48:02;-5.30;99.90
46590;DHT22;32313;48.722;9.362;2023-02-15T05:50:28;-5.30;99.90
46590;DHT22;32313;48.722;9.362;2023-02-15T05:52:53;-5.20;99.90
46590;DHT22;32313;48.722;9.362;2023-02-15T05:55:19;-5.20;99.90
46590;DHT22;32313;48.722;9.362;2023-02-15T05:57:45;-5.20;99.90
46590;DHT22;32313;48.722;9.362;2023-02-15T06:00:12;-5.20;99.90
46590;DHT22;32313;48.722;9.362;2023-02-15T06:02:38;-5.30;99.90
46590;DHT22;32313;48.722;9.362;2023-02-15T06:05:05;-5.30;99.90
46590;DHT22;32313;48.722;9.362;2023-02-15T06:07:31;-5.30;99.90
46590;DHT22;32313;48.722;9.362;2023-02-15T06:09:57;-5.40;99.90
46590;DHT22;32313;48.722;9.362;2023-02-15T06:12:23;-5.40;99.90
46590;DHT22;32313;48.722;9.362;2023-02-15T06:14:48;-5.50;99.90
46590;DHT22;32313;48.722;9.362;2023-02-15T06:17:14;-5.50;99.90
46590;DHT22;32313;48.722;9.362;2023-02-15T06:19:41;-5.50;99.90
46590;DHT22;32313;48.722;9.362;2023-02-15T06:22:07;-5.50;99.90
46590;DHT22;32313;48.722;9.362;2023-02-15T06:24:33;-5.50;99.90
46590;DHT22;32313;48.722;9.362;2023-02-15T06:26:59;-5.50;99.90
46590;DHT22;32313;48.722;9.362;2023-02-15T06:29:24;-5.60;99.90
46590;DHT22;32313;48.722;9.362;2023-02-15T06:31:50;-5.60;99.90
46590;DHT22;32313;48.722;9.362;2023-02-15T06:34:16;-5.60;99.90
46590;DHT22;32313;48.722;9.362;2023-02-15T06:36:41;-5.60;99.90
46590;DHT22;32313;48.722;9.362;2023-02-15T06:39:08;-5.60;99.90
46590;DHT22;32313;48.722;9.362;2023-02-15T06:41:34;-5.50;99.90
46590;DHT22;32313;48.722;9.362;2023-02-15T06:44:00;-5.40;99.90
46590;DHT22;32313;48.722;9.362;2023-02-15T06:46:25;-5.40;99.90
46590;DHT22;32313;48.722;9.362;2023-02-15T06:48:51;-5.50;99.90
46590;DHT22;32313;48.722;9.362;2023-02-15T06:51:17;-5.40;99.90
46590;DHT22;32313;48.722;9.362;2023-02-15T06:53:42;-5.40;99.90
46590;DHT22;32313;48.722;9.362;2023-02-15T06:56:10;-5.30;99.90
46590;DHT22;32313;48.722;9.362;2023-02-15T06:58:39;-5.20;99.90
46590;DHT22;32313;48.722;9.362;2023-02-15T07:01:06;-5.00;99.90
46590;DHT22;32313;48.722;9.362;2023-02-15T07:03:33;-5.00;99.90
46590;DHT22;32313;48.722;9.362;2023-02-15T07:06:01;-5.00;99.90
46590;DHT22;32313;48.722;9.362;2023-02-15T07:08:30;-4.90;99.90
46590;DHT22;32313;48.722;9.362;2023-02-15T07:10:55;-4.90;99.90
46590;DHT22;32313;48.722;9.362;2023-02-15T07:13:44;-4.90;99.90
46590;DHT22;32313;48.722;9.362;2023-02-15T07:16:10;-4.90;99.90
46590;DHT22;32313;48.722;9.362;2023-02-15T07:18:36;-4.90;99.90
46590;DHT22;32313;48.722;9.362;2023-02-15T07:21:02;-4.90;99.90
46590;DHT22;32313;48.722;9.362;2023-02-15T07:23:28;-4.90;99.90
46590;DHT22;32313;48.722;9.362;2023-02-15T07:26:00;-4.80;99.90
46590;DHT22;32313;48.722;9.362;2023-02-15T07:28:27;-4.80;99.90
46590;DHT22;32313;48.722;9.362;2023-02-15T07:30:53;-4.70;99.90
46590;DHT22;32313;48.722;9.362;2023-02-15T07:33:19;-4.60;99.90
46590;DHT22;32313;48.722;9.362;2023-02-15T07:35:57;-4.40;99.90
46590;DHT22;32313;48.722;9.362;2023-02-15T07:38:24;-3.90;99.90
46590;DHT22;32313;48.722;9.362;2023-02-15T07:40:51;-3.40;99.90
46590;DHT22;32313;48.722;9.362;2023-02-15T07:43:22;-2.70;99.90
46590;DHT22;32313;48.722;9.362;2023-02-15T07:45:48;-2.20;99.90
46590;DHT22;32313;48.722;9.362;2023-02-15T07:48:13;-1.60;99.90
46590;DHT22;32313;48.722;9.362;2023-02-15T07:50:39;-1.00;99.90
46590;DHT22;32313;48.722;9.362;2023-02-15T07:53:05;-0.70;99.90
46590;DHT22;32313;48.722;9.362;2023-02-15T07:55:30;-0.30;99.90
46590;DHT22;32313;48.722;9.362;2023-02-15T07:57:56;-0.50;99.90
46590;DHT22;32313;48.722;9.362;2023-02-15T08:00:22;-1.20;99.90
46590;DHT22;32313;48.722;9.362;2023-02-15T08:02:59;-1.70;99.90
46590;DHT22;32313;48.722;9.362;2023-02-15T08:05:41;-2.10;99.90
46590;DHT22;32313;48.722;9.362;2023-02-15T08:08:08;-2.40;99.90
46590;DHT22;32313;48.722;9.362;2023-02-15T08:10:35;-2.50;99.90
46590;DHT22;32313;48.722;9.362;2023-02-15T08:13:48;-2.60;99.90
46590;DHT22;32313;48.722;9.362;2023-02-15T08:18:50;-2.50;99.90
46590;DHT22;32313;48.722;9.362;2023-02-15T08:21:16;-2.50;99.90
46590;DHT22;32313;48.722;9.362;2023-02-15T08:23:41;-2.40;99.90
46590;DHT22;32313;48.722;9.362;2023-02-15T08:26:07;-2.30;99.90
46590;DHT22;32313;48.722;9.362;2023-02-15T08:28:33;-2.20;99.90
46590;DHT22;32313;48.722;9.362;2023-02-15T08:31:25;-2.10;99.90
46590;DHT22;32313;48.722;9.362;2023-02-15T08:33:53;-2.00;99.90
46590;DHT22;32313;48.722;9.362;2023-02-15T08:36:22;-1.70;99.90
46590;DHT22;32313;48.722;9.362;2023-02-15T08:38:48;-0.70;99.90
46590;DHT22;32313;48.722;9.362;2023-02-15T08:43:42;1.20;99.90
46590;DHT22;32313;48.722;9.362;2023-02-15T08:46:09;1.90;99.90
46590;DHT22;32313;48.722;9.362;2023-02-15T08:48:35;2.50;99.90
46590;DHT22;32313;48.722;9.362;2023-02-15T08:51:27;3.00;99.90
46590;DHT22;32313;48.722;9.362;2023-02-15T08:53:53;3.70;99.90
46590;DHT22;32313;48.722;9.362;2023-02-15T08:56:32;4.10;99.90
46590;DHT22;32313;48.722;9.362;2023-02-15T08:58:59;4.70;99.90
46590;DHT22;32313;48.722;9.362;2023-02-15T09:01:30;5.00;99.90
46590;DHT22;32313;48.722;9.362;2023-02-15T09:04:04;5.40;99.90
46590;DHT22;32313;48.722;9.362;2023-02-15T09:06:31;5.50;99.90
46590;DHT22;32313;48.722;9.362;2023-02-15T09:08:57;6.00;99.90
46590;DHT22;32313;48.722;9.362;2023-02-15T09:11:25;6.30;99.90
46590;DHT22;32313;48.722;9.362;2023-02-15T09:13:58;6.40;99.90
46590;DHT22;32313;48.722;9.362;2023-02-15T09:16:27;6.80;99.90
46590;DHT22;32313;48.722;9.362;2023-02-15T09:18:53;6.90;99.90
46590;DHT22;32313;48.722;9.362;2023-02-15T09:21:21;7.10;99.90
46590;DHT22;32313;48.722;9.362;2023-02-15T09:23:48;7.30;99.90
46590;DHT22;32313;48.722;9.362;2023-02-15T09:26:19;7.50;99.90
46590;DHT22;32313;48.722;9.362;2023-02-15T09:28:46;7.60;99.90
46590;DHT22;32313;48.722;9.362;2023-02-15T09:31:13;8.00;99.90
46590;DHT22;32313;48.722;9.362;2023-02-15T09:33:41;8.10;99.90
46590;DHT22;32313;48.722;9.362;2023-02-15T09:36:18;8.50;99.90
46590;DHT22;32313;48.722;9.362;2023-02-15T09:38:45;8.70;99.90
46590;DHT22;32313;48.722;9.362;2023-02-15T09:41:18;8.90;99.90
46590;DHT22;32313;48.722;9.362;2023-02-15T10:00:29;11.30;99.90
46590;DHT22;32313;48.722;9.362;2023-02-15T10:05:58;11.60;99.90
46590;DHT22;32313;48.722;9.362;2023-02-15T10:09:02;11.60;99.90
46590;DHT22;32313;48.722;9.362;2023-02-15T10:11:52;11.90;99.90
46590;DHT22;32313;48.722;9.362;2023-02-15T10:14:27;12.10;99.90
46590;DHT22;32313;48.722;9.362;2023-02-15T10:19:46;12.10;99.90
46590;DHT22;32313;48.722;9.362;2023-02-15T10:25:35;12.30;99.90
46590;DHT22;32313;48.722;9.362;2023-02-15T10:28:18;12.40;99.90
46590;DHT22;32313;48.722;9.362;2023-02-15T10:38:40;13.20;99.90
46590;DHT22;32313;48.722;9.362;2023-02-15T10:41:36;13.40;99.90
46590;DHT22;32313;48.722;9.362;2023-02-15T10:44:20;13.40;99.30
46590;DHT22;32313;48.722;9.362;2023-02-15T10:53:05;13.90;93.70
46590;DHT22;32313;48.722;9.362;2023-02-15T11:01:34;14.50;94.70
46590;DHT22;32313;48.722;9.362;2023-02-15T11:06:54;14.60;91.20
46590;DHT22;32313;48.722;9.362;2023-02-15T11:09:24;14.70;92.40
46590;DHT22;32313;48.722;9.362;2023-02-15T11:11:56;14.90;91.90
46590;DHT22;32313;48.722;9.362;2023-02-15T11:14:43;15.50;93.10
46590;DHT22;32313;48.722;9.362;2023-02-15T11:17:16;15.90;91.80
46590;DHT22;32313;48.722;9.362;2023-02-15T11:20:16;16.00;90.40
46590;DHT22;32313;48.722;9.362;2023-02-15T11:22:47;15.70;88.70
46590;DHT22;32313;48.722;9.362;2023-02-15T11:25:22;15.80;89.10
46590;DHT22;32313;48.722;9.362;2023-02-15T11:27:48;16.10;89.80
46590;DHT22;32313;48.722;9.362;2023-02-15T11:30:20;16.20;87.10
46590;DHT22;32313;48.722;9.362;2023-02-15T11:32:48;16.20;82.60
46590;DHT22;32313;48.722;9.362;2023-02-15T11:35:33;16.00;79.20
46590;DHT22;32313;48.722;9.362;2023-02-15T11:38:13;15.50;82.30
46590;DHT22;32313;48.722;9.362;2023-02-15T11:40:53;15.80;84.20
46590;DHT22;32313;48.722;9.362;2023-02-15T11:43:46;16.30;83.00
46590;DHT22;32313;48.722;9.362;2023-02-15T11:46:13;16.30;79.20
46590;DHT22;32313;48.722;9.362;2023-02-15T11:48:40;16.10;77.00
46590;DHT22;32313;48.722;9.362;2023-02-15T11:51:21;16.20;79.60
46590;DHT22;32313;48.722;9.362;2023-02-15T11:53:48;16.60;76.90
46590;DHT22;32313;48.722;9.362;2023-02-15T11:56:15;16.60;76.80
46590;DHT22;32313;48.722;9.362;2023-02-15T11:58:50;16.80;75.70
46590;DHT22;32313;48.722;9.362;2023-02-15T12:04:10;16.90;74.00
46590;DHT22;32313;48.722;9.362;2023-02-15T12:06:55;16.90;71.70
46590;DHT22;32313;48.722;9.362;2023-02-15T12:09:33;17.10;69.70
46590;DHT22;32313;48.722;9.362;2023-02-15T12:12:27;17.00;72.70
46590;DHT22;32313;48.722;9.362;2023-02-15T12:14:58;17.40;70.20
46590;DHT22;32313;48.722;9.362;2023-02-15T12:17:48;17.40;69.00
46590;DHT22;32313;48.722;9.362;2023-02-15T12:23:02;17.20;70.00
46590;DHT22;32313;48.722;9.362;2023-02-15T12:25:41;17.10;68.10
46590;DHT22;32313;48.722;9.362;2023-02-15T12:30:46;17.20;68.10
46590;DHT22;32313;48.722;9.362;2023-02-15T12:33:42;17.50;68.70
46590;DHT22;32313;48.722;9.362;2023-02-15T12:36:12;17.30;69.10
46590;DHT22;32313;48.722;9.362;2023-02-15T12:38:40;17.10;71.00
46590;DHT22;32313;48.722;9.362;2023-02-15T12:41:24;17.50;69.00
46590;DHT22;32313;48.722;9.362;2023-02-15T12:46:28;18.00;68.70
46590;DHT22;32313;48.722;9.362;2023-02-15T12:49:11;17.70;67.70
46590;DHT22;32313;48.722;9.362;2023-02-15T12:54:17;17.10;67.10
46590;DHT22;32313;48.722;9.362;2023-02-15T12:56:43;17.20;68.30
46590;DHT22;32313;48.722;9.362;2023-02-15T12:59:14;17.50;68.20
46590;DHT22;32313;48.722;9.362;2023-02-15T13:01:41;17.70;67.20
46590;DHT22;32313;48.722;9.362;2023-02-15T13:04:28;17.60;67.00
46590;DHT22;32313;48.722;9.362;2023-02-15T13:06:59;17.50;67.10
46590;DHT22;32313;48.722;9.362;2023-02-15T13:09:35;17.80;67.80
46590;DHT22;32313;48.722;9.362;2023-02-15T13:12:19;17.90;68.10
46590;DHT22;32313;48.722;9.362;2023-02-15T13:14:48;18.00;68.20
46590;DHT22;32313;48.722;9.362;2023-02-15T13:17:18;18.00;68.80
46590;DHT22;32313;48.722;9.362;2023-02-15T13:19:51;18.40;69.20
46590;DHT22;32313;48.722;9.362;2023-02-15T13:22:21;18.50;69.00
46590;DHT22;32313;48.722;9.362;2023-02-15T13:24:51;18.30;69.40
46590;DHT22;32313;48.722;9.362;2023-02-15T13:27:21;18.10;70.30
46590;DHT22;32313;48.722;9.362;2023-02-15T13:29:59;18.00;70.40
46590;DHT22;32313;48.722;9.362;2023-02-15T13:32:32;17.80;71.10
46590;DHT22;32313;48.722;9.362;2023-02-15T13:35:00;17.70;70.50
46590;DHT22;32313;48.722;9.362;2023-02-15T13:40:22;17.90;68.80
46590;DHT22;32313;48.722;9.362;2023-02-15T13:42:55;17.90;69.60
46590;DHT22;32313;48.722;9.362;2023-02-15T13:45:55;17.80;69.70
46590;DHT22;32313;48.722;9.362;2023-02-15T13:51:22;18.30;69.70
46590;DHT22;32313;48.722;9.362;2023-02-15T13:54:23;18.80;69.30
46590;DHT22;32313;48.722;9.362;2023-02-15T13:57:24;18.90;68.20
46590;DHT22;32313;48.722;9.362;2023-02-15T13:59:58;19.10;67.60
46590;DHT22;32313;48.722;9.362;2023-02-15T14:19:27;18.30;69.30
46590;DHT22;32313;48.722;9.362;2023-02-15T14:21:58;18.50;69.20
46590;DHT22;32313;48.722;9.362;2023-02-15T14:32:59;18.40;68.70
46590;DHT22;32313;48.722;9.362;2023-02-15T14:35:29;18.40;69.30
46590;DHT22;32313;48.722;9.362;2023-02-15T14:41:10;18.10;67.90
46590;DHT22;32313;48.722;9.362;2023-02-15T14:43:44;17.50;69.40
46590;DHT22;32313;48.722;9.362;2023-02-15T14:48:49;17.20;69.80
46590;DHT22;32313;48.722;9.362;2023-02-15T14:54:10;16.10;72.70
46590;DHT22;32313;48.722;9.362;2023-02-15T14:56:36;15.50;75.40
46590;DHT22;32313;48.722;9.362;2023-02-15T14:59:16;14.70;76.80
46590;DHT22;32313;48.722;9.362;2023-02-15T15:02:09;14.10;78.10
46590;DHT22;32313;48.722;9.362;2023-02-15T15:04:40;13.60;79.70
46590;DHT22;32313;48.722;9.362;2023-02-15T15:09:42;12.60;81.70
46590;DHT22;32313;48.722;9.362;2023-02-15T15:12:36;12.20;82.60
46590;DHT22;32313;48.722;9.362;2023-02-15T15:15:02;12.00;84.20
46590;DHT22;32313;48.722;9.362;2023-02-15T15:20:12;11.50;85.10
46590;DHT22;32313;48.722;9.362;2023-02-15T15:22:42;11.40;87.30
46590;DHT22;32313;48.722;9.362;2023-02-15T15:25:11;11.20;87.60
46590;DHT22;32313;48.722;9.362;2023-02-15T15:41:23;10.40;91.10
46590;DHT22;32313;48.722;9.362;2023-02-15T15:49:31;9.90;92.30
46590;DHT22;32313;48.722;9.362;2023-02-15T15:52:10;9.80;92.80
46590;DHT22;32313;48.722;9.362;2023-02-15T15:55:04;9.80;93.10
46590;DHT22;32313;48.722;9.362;2023-02-15T15:57:35;9.80;93.00
46590;DHT22;32313;48.722;9.362;2023-02-15T16:00:04;9.90;93.20
46590;DHT22;32313;48.722;9.362;2023-02-15T16:02:50;9.80;93.40
46590;DHT22;32313;48.722;9.362;2023-02-15T16:05:16;9.80;93.70
46590;DHT22;32313;48.722;9.362;2023-02-15T16:07:42;9.60;93.90
46590;DHT22;32313;48.722;9.362;2023-02-15T16:10:23;9.50;94.30
46590;DHT22;32313;48.722;9.362;2023-02-15T16:12:50;9.30;94.70
46590;DHT22;32313;48.722;9.362;2023-02-15T16:15:22;9.10;95.20
46590;DHT22;32313;48.722;9.362;2023-02-15T16:17:55;8.90;95.40
46590;DHT22;32313;48.722;9.362;2023-02-15T16:20:29;8.60;95.80
46590;DHT22;32313;48.722;9.362;2023-02-15T16:25:52;8.20;96.40
46590;DHT22;32313;48.722;9.362;2023-02-15T16:28:20;8.00;97.10
46590;DHT22;32313;48.722;9.362;2023-02-15T16:30:55;7.80;97.10
46590;DHT22;32313;48.722;9.362;2023-02-15T16:33:35;7.60;97.60
46590;DHT22;32313;48.722;9.362;2023-02-15T16:36:01;7.40;98.20
46590;DHT22;32313;48.722;9.362;2023-02-15T16:41:11;7.20;99.40
46590;DHT22;32313;48.722;9.362;2023-02-15T16:43:39;7.10;99.90
46590;DHT22;32313;48.722;9.362;2023-02-15T16:46:26;7.00;99.90
46590;DHT22;32313;48.722;9.362;2023-02-15T16:48:56;6.70;99.90
46590;DHT22;32313;48.722;9.362;2023-02-15T16:51:26;6.50;99.90
46590;DHT22;32313;48.722;9.362;2023-02-15T16:53:54;6.40;99.90
46590;DHT22;32313;48.722;9.362;2023-02-15T16:56:29;6.20;99.90
46590;DHT22;32313;48.722;9.362;2023-02-15T16:58:58;6.10;99.90
46590;DHT22;32313;48.722;9.362;2023-02-15T17:01:27;5.90;99.90
46590;DHT22;32313;48.722;9.362;2023-02-15T17:04:34;5.80;99.90
46590;DHT22;32313;48.722;9.362;2023-02-15T17:07:15;5.50;99.90
46590;DHT22;32313;48.722;9.362;2023-02-15T17:09:52;5.20;99.90
46590;DHT22;32313;48.722;9.362;2023-02-15T17:12:52;5.00;99.90
46590;DHT22;32313;48.722;9.362;2023-02-15T17:15:34;4.80;99.90
46590;DHT22;32313;48.722;9.362;2023-02-15T17:18:11;4.50;99.90
46590;DHT22;32313;48.722;9.362;2023-02-15T17:20:40;4.30;99.90
46590;DHT22;32313;48.722;9.362;2023-02-15T17:25:54;3.80;99.90
46590;DHT22;32313;48.722;9.362;2023-02-15T17:28:23;3.70;99.90
46590;DHT22;32313;48.722;9.362;2023-02-15T17:30:51;3.50;99.90
46590;DHT22;32313;48.722;9.362;2023-02-15T17:36:12;3.30;99.90
46590;DHT22;32313;48.722;9.362;2023-02-15T17:41:32;3.00;99.90
46590;DHT22;32313;48.722;9.362;2023-02-15T17:44:03;2.80;99.90
46590;DHT22;32313;48.722;9.362;2023-02-15T17:46:33;2.70;99.90
46590;DHT22;32313;48.722;9.362;2023-02-15T17:49:00;2.60;99.90
46590;DHT22;32313;48.722;9.362;2023-02-15T17:51:26;2.50;99.90
46590;DHT22;32313;48.722;9.362;2023-02-15T17:53:52;2.40;99.90
46590;DHT22;32313;48.722;9.362;2023-02-15T17:56:37;2.30;99.90
46590;DHT22;32313;48.722;9.362;2023-02-15T17:59:04;2.20;99.90
46590;DHT22;32313;48.722;9.362;2023-02-15T18:01:37;2.20;99.90
46590;DHT22;32313;48.722;9.362;2023-02-15T18:04:25;2.10;99.90
46590;DHT22;32313;48.722;9.362;2023-02-15T18:07:17;2.00;99.90
46590;DHT22;32313;48.722;9.362;2023-02-15T18:10:12;1.90;99.90
46590;DHT22;32313;48.722;9.362;2023-02-15T18:12:56;1.80;99.90
46590;DHT22;32313;48.722;9.362;2023-02-15T18:15:22;1.60;99.90
46590;DHT22;32313;48.722;9.362;2023-02-15T18:17:48;1.50;99.90
46590;DHT22;32313;48.722;9.362;2023-02-15T18:22:43;1.30;99.90
46590;DHT22;32313;48.722;9.362;2023-02-15T18:25:14;1.20;99.90
46590;DHT22;32313;48.722;9.362;2023-02-15T18:27:40;1.20;99.90
46590;DHT22;32313;48.722;9.362;2023-02-15T18:30:07;1.10;99.90
46590;DHT22;32313;48.722;9.362;2023-02-15T18:32:35;1.00;99.90
46590;DHT22;32313;48.722;9.362;2023-02-15T18:35:02;1.00;99.90
46590;DHT22;32313;48.722;9.362;2023-02-15T18:37:31;0.90;99.90
46590;DHT22;32313;48.722;9.362;2023-02-15T18:39:59;0.90;99.90
46590;DHT22;32313;48.722;9.362;2023-02-15T18:42:27;0.80;99.90
46590;DHT22;32313;48.722;9.362;2023-02-15T18:45:03;0.80;99.90
46590;DHT22;32313;48.722;9.362;2023-02-15T18:47:31;0.70;99.90
46590;DHT22;32313;48.722;9.362;2023-02-15T18:49:57;0.70;99.90
46590;DHT22;32313;48.722;9.362;2023-02-15T18:52:26;0.70;99.90
46590;DHT22;32313;48.722;9.362;2023-02-15T18:54:58;0.60;99.90